Time;durP1;ratioP1;P1;durP2;ratioP2;P2;SDS_P1;SDS_P2;PMS_P1;PMS_P2;Temp;Humidity;BMP_temperature;BMP_pressure;BME280_temperature;BME280_humidity;BME280_pressure;Samples;Min_cycle;Max_cycle;Signal;HPM_P1;HPM_P2
2024/02/23 00:01:26;;;;;;;0.30;0.30;;;4.90;99.90;;;;;;4972651;28;20043;-70
2024/02/23 00:03:53;;;;;;;1.75;0.50;;;4.90;99.90;;;;;;4972770;28;20493;-69
2024/02/23 00:06:20;;;;;;;1.17;0.30;;;4.90;99.90;;;;;;4988841;28;20055;-70
2024/02/23 00:08:47;;;;;;;3.75;0.50;;;4.90;99.90;;;;;;4972534;28;20053;-69
2024/02/23 00:11:14;;;;;;;1.75;0.43;;;5.10;99.90;;;;;;4972696;28;20046;-70
2024/02/23 00:13:41;;;;;;;0.95;0.40;;;4.90;99.90;;;;;;4972418;28;20055;-70
2024/02/23 00:16:08;;;;;;;0.85;0.43;;;4.90;99.90;;;;;;4988655;28;20074;-69
2024/02/23 00:18:35;;;;;;;0.65;0.60;;;4.90;99.90;;;;;;4973611;28;20042;-70
2024/02/23 00:21:02;;;;;;;1.88;1.77;;;4.90;99.90;;;;;;4973885;28;20377;-70
2024/02/23 00:23:29;;;;;;;2.50;0.70;;;4.90;99.90;;;;;;4972446;28;20077;-70
2024/02/23 00:25:56;;;;;;;2.45;2.00;;;4.90;99.90;;;;;;4972552;28;20393;-70
2024/02/23 00:28:23;;;;;;;2.13;0.77;;;4.90;99.90;;;;;;4972638;28;20053;-70
2024/02/23 00:30:51;;;;;;;3.03;1.95;;;4.90;99.90;;;;;;4972213;28;20455;-70
2024/02/23 00:33:18;;;;;;;3.45;1.27;;;4.90;99.90;;;;;;4972509;28;20055;-70
2024/02/23 00:35:45;;;;;;;2.30;1.05;;;4.90;99.90;;;;;;4972054;28;20149;-70
2024/02/23 00:38:12;;;;;;;3.22;0.80;;;4.90;99.90;;;;;;4973729;28;20484;-69
2024/02/23 00:40:39;;;;;;;2.58;0.90;;;5.00;99.90;;;;;;4971873;28;20094;-70
2024/02/23 00:43:06;;;;;;;1.65;0.70;;;4.90;99.90;;;;;;4972533;28;20049;-69
2024/02/23 00:45:33;;;;;;;2.42;0.75;;;5.00;99.90;;;;;;4973404;28;20039;-70
2024/02/23 00:48:00;;;;;;;0.65;0.43;;;4.90;99.90;;;;;;4972287;28;20043;-70
2024/02/23 00:50:27;;;;;;;1.23;1.10;;;4.90;99.90;;;;;;4973594;28;20063;-70
2024/02/23 00:52:54;;;;;;;2.30;0.60;;;4.90;99.90;;;;;;4973370;28;20047;-70
2024/02/23 00:55:21;;;;;;;1.17;0.75;;;4.80;99.90;;;;;;4972263;28;20043;-70
2024/02/23 00:57:48;;;;;;;2.70;0.80;;;4.80;99.90;;;;;;4972084;28;20046;-70
2024/02/23 01:00:15;;;;;;;2.05;0.70;;;4.70;99.90;;;;;;4972305;28;20078;-70
2024/02/23 01:02:42;;;;;;;3.53;3.25;;;4.70;99.90;;;;;;4971999;28;20420;-69
2024/02/23 01:05:10;;;;;;;3.75;1.02;;;4.70;99.90;;;;;;4973536;28;20118;-70
2024/02/23 01:07:37;;;;;;;0.65;0.60;;;4.60;99.90;;;;;;4971957;28;20051;-70
2024/02/23 01:10:05;;;;;;;1.00;0.90;;;4.40;99.90;;;;;;4973471;28;20112;-70
2024/02/23 01:12:31;;;;;;;0.52;0.52;;;4.30;99.90;;;;;;4972200;28;20050;-69
2024/02/23 01:14:58;;;;;;;0.30;0.30;;;4.20;99.90;;;;;;4988304;28;20042;-71
2024/02/23 01:17:28;;;;;;;0.30;0.30;;;4.00;99.90;;;;;;4971978;28;20051;-70
2024/02/23 01:19:55;;;;;;;0.40;0.40;;;3.80;99.90;;;;;;5004354;28;20130;-70
2024/02/23 01:22:22;;;;;;;0.40;0.40;;;3.80;99.90;;;;;;5004421;28;20114;-70
2024/02/23 01:24:49;;;;;;;0.65;0.32;;;3.60;99.90;;;;;;4971760;28;20051;-70
2024/02/23 01:27:16;;;;;;;0.30;0.30;;;3.60;99.90;;;;;;4973264;28;20070;-70
2024/02/23 01:29:43;;;;;;;1.80;1.75;;;3.60;99.90;;;;;;4971479;28;20408;-70
2024/02/23 01:32:09;;;;;;;0.60;0.55;;;3.50;99.90;;;;;;4973124;28;20042;-70
2024/02/23 01:34:36;;;;;;;0.47;0.47;;;3.50;99.90;;;;;;5003973;28;20043;-70
2024/02/23 01:37:04;;;;;;;1.08;0.73;;;3.50;99.90;;;;;;4955953;28;20046;-71
2024/02/23 01:39:31;;;;;;;0.40;0.40;;;3.50;99.90;;;;;;4971878;28;20085;-70
2024/02/23 01:41:58;;;;;;;2.15;2.05;;;3.50;99.90;;;;;;4987948;28;20459;-70
2024/02/23 01:44:25;;;;;;;3.50;0.90;;;3.50;99.90;;;;;;4971915;28;20097;-70
2024/02/23 01:46:52;;;;;;;0.40;0.40;;;3.60;99.90;;;;;;4972945;28;20082;-70
2024/02/23 01:49:20;;;;;;;1.15;0.50;;;3.60;99.90;;;;;;4971809;28;20057;-70
2024/02/23 01:51:48;;;;;;;1.35;1.35;;;3.70;99.90;;;;;;4972983;28;20415;-69
2024/02/23 01:54:16;;;;;;;2.25;0.55;;;3.70;99.90;;;;;;4991005;28;20058;-69
2024/02/23 01:56:44;;;;;;;1.27;0.75;;;3.80;99.90;;;;;;4974877;28;20038;-69
2024/02/23 01:59:12;;;;;;;2.13;1.33;;;3.90;99.90;;;;;;4975044;28;20043;-69
2024/02/23 02:01:39;;;;;;;1.42;1.10;;;3.90;99.90;;;;;;4975105;28;20043;-69
2024/02/23 02:04:06;;;;;;;2.28;2.08;;;4.00;99.90;;;;;;4974916;28;20500;-69
2024/02/23 02:06:33;;;;;;;2.35;1.40;;;4.00;99.90;;;;;;4975048;28;20050;-69
2024/02/23 02:09:00;;;;;;;4.00;1.48;;;4.10;99.90;;;;;;4974716;28;20050;-70
2024/02/23 02:11:27;;;;;;;2.05;1.35;;;4.10;99.90;;;;;;4976101;28;20050;-69
2024/02/23 02:13:54;;;;;;;2.45;1.58;;;4.10;99.90;;;;;;4974709;28;20049;-69
2024/02/23 02:16:21;;;;;;;1.90;1.48;;;4.20;99.90;;;;;;4975912;28;20039;-69
2024/02/23 02:18:48;;;;;;;2.72;1.20;;;4.30;99.90;;;;;;4975580;28;20046;-69
2024/02/23 02:21:15;;;;;;;3.40;1.73;;;4.30;99.90;;;;;;4976161;28;20039;-69
2024/02/23 02:23:42;;;;;;;4.25;1.63;;;4.30;99.90;;;;;;4975695;28;20051;-69
2024/02/23 02:26:09;;;;;;;3.53;1.80;;;4.30;99.90;;;;;;4974586;28;20555;-69
2024/02/23 02:28:36;;;;;;;1.15;1.05;;;4.40;99.90;;;;;;5007076;28;20069;-69
2024/02/23 02:31:03;;;;;;;2.90;1.70;;;4.50;99.90;;;;;;4974279;28;20058;-69
2024/02/23 02:33:30;;;;;;;2.95;2.75;;;4.50;99.90;;;;;;4990532;28;20458;-69
2024/02/23 02:35:57;;;;;;;3.92;1.52;;;4.50;99.90;;;;;;4975511;28;20047;-69
2024/02/23 02:38:24;;;;;;;4.20;3.47;;;4.50;99.90;;;;;;4974457;28;20447;-69
2024/02/23 02:40:51;;;;;;;4.90;2.15;;;4.70;99.90;;;;;;4958094;28;20053;-69
2024/02/23 02:43:18;;;;;;;4.82;1.73;;;4.50;99.90;;;;;;4975510;28;20057;-69
2024/02/23 02:45:45;;;;;;;5.53;2.05;;;4.60;99.90;;;;;;4974167;28;20065;-69
2024/02/23 02:48:12;;;;;;;5.60;2.17;;;4.70;99.90;;;;;;4990258;28;20085;-69
2024/02/23 02:50:39;;;;;;;7.30;3.13;;;4.60;99.90;;;;;;4975429;28;20043;-69
2024/02/23 02:53:06;;;;;;;4.50;1.95;;;4.70;99.90;;;;;;4973904;28;20515;-69
2024/02/23 02:55:33;;;;;;;6.97;2.15;;;4.80;99.90;;;;;;4990482;28;20057;-70
2024/02/23 02:58:00;;;;;;;8.90;1.88;;;4.80;99.90;;;;;;4973782;28;20034;-70
2024/02/23 03:00:28;;;;;;;7.28;2.30;;;4.90;99.90;;;;;;4975492;28;20046;-70
2024/02/23 03:02:55;;;;;;;1.73;1.20;;;4.80;99.90;;;;;;4973675;28;20121;-70
2024/02/23 03:05:21;;;;;;;6.68;2.28;;;4.80;99.90;;;;;;4975233;28;20368;-70
2024/02/23 03:07:49;;;;;;;4.43;1.67;;;4.80;99.90;;;;;;4989673;28;20047;-69
2024/02/23 03:10:16;;;;;;;9.43;3.08;;;4.70;99.90;;;;;;4989933;28;20055;-70
2024/02/23 03:12:43;;;;;;;8.55;2.47;;;4.80;99.90;;;;;;4973803;28;20054;-70
2024/02/23 03:15:10;;;;;;;7.15;2.33;;;4.70;99.90;;;;;;4973428;28;20138;-70
2024/02/23 03:17:37;;;;;;;10.23;2.78;;;4.80;99.90;;;;;;4974813;28;20074;-70
2024/02/23 03:20:11;;;;;;;5.63;2.40;;;4.80;99.90;;;;;;4974726;28;20130;-69
2024/02/23 03:22:38;;;;;;;7.25;2.45;;;4.80;99.90;;;;;;4974768;28;20043;-69
2024/02/23 03:25:12;;;;;;;10.07;2.80;;;4.80;99.90;;;;;;4957364;28;20075;-69
2024/02/23 03:27:39;;;;;;;6.53;2.75;;;4.80;99.90;;;;;;5004286;28;20047;-69
2024/02/23 03:30:09;;;;;;;2.90;1.30;;;4.80;99.90;;;;;;4973149;28;20058;-69
2024/02/23 03:32:37;;;;;;;3.42;2.05;;;4.70;99.90;;;;;;4988078;28;20047;-69
2024/02/23 03:35:06;;;;;;;4.32;1.65;;;4.70;99.90;;;;;;4973818;28;20054;-70
2024/02/23 03:37:33;;;;;;;9.98;2.97;;;4.70;99.90;;;;;;5003784;28;20047;-70
2024/02/23 03:40:00;;;;;;;5.05;1.70;;;4.70;99.90;;;;;;4974409;28;20035;-70
2024/02/23 03:42:27;;;;;;;4.93;2.03;;;4.70;99.90;;;;;;4973373;28;20042;-70
2024/02/23 03:44:55;;;;;;;5.35;2.72;;;4.80;99.90;;;;;;4973134;28;20082;-69
2024/02/23 03:47:22;;;;;;;7.25;2.42;;;4.70;99.90;;;;;;4974423;28;20046;-70
2024/02/23 03:49:49;;;;;;;5.70;2.83;;;4.60;99.90;;;;;;4989065;28;20463;-69
2024/02/23 03:52:15;;;;;;;3.00;1.80;;;4.50;99.90;;;;;;4974153;28;20053;-69
2024/02/23 03:54:42;;;;;;;7.03;2.72;;;4.50;99.90;;;;;;4989261;28;20563;-69
2024/02/23 03:57:10;;;;;;;7.25;1.67;;;4.50;99.90;;;;;;5004944;28;20101;-69
2024/02/23 03:59:37;;;;;;;6.60;1.27;;;4.40;99.90;;;;;;4974186;28;20066;-70
2024/02/23 04:02:04;;;;;;;4.20;2.65;;;4.40;99.90;;;;;;4971707;28;20472;-69
2024/02/23 04:04:31;;;;;;;4.55;1.85;;;4.50;99.90;;;;;;5005090;28;20053;-69
2024/02/23 04:06:59;;;;;;;6.97;2.40;;;4.50;99.90;;;;;;4973493;28;20085;-69
2024/02/23 04:09:25;;;;;;;6.43;2.13;;;4.40;99.90;;;;;;4974014;28;20050;-69
2024/02/23 04:11:52;;;;;;;3.15;1.35;;;4.50;99.90;;;;;;4988951;28;20047;-70
2024/02/23 04:14:19;;;;;;;4.43;4.03;;;4.50;99.90;;;;;;4988566;28;20435;-69
2024/02/23 04:16:46;;;;;;;6.15;1.77;;;4.60;99.90;;;;;;4973555;28;20046;-69
2024/02/23 04:19:14;;;;;;;7.97;2.65;;;4.50;99.90;;;;;;4972447;28;20053;-69
2024/02/23 04:21:41;;;;;;;4.28;1.63;;;4.40;99.90;;;;;;4972665;28;20054;-69
2024/02/23 04:24:08;;;;;;;3.08;1.40;;;4.40;99.90;;;;;;4972435;28;20046;-69
2024/02/23 04:26:35;;;;;;;3.35;1.45;;;4.40;99.90;;;;;;4972648;28;20046;-69
2024/02/23 04:29:02;;;;;;;2.78;1.45;;;4.40;99.90;;;;;;5004416;28;20035;-69
2024/02/23 04:31:29;;;;;;;3.38;1.35;;;4.40;99.90;;;;;;4972508;28;20503;-69
2024/02/23 04:33:56;;;;;;;5.47;1.73;;;4.40;99.90;;;;;;5004777;28;20038;-68
2024/02/23 04:36:23;;;;;;;3.55;1.63;;;4.30;99.90;;;;;;4973514;28;20093;-69
2024/02/23 04:38:50;;;;;;;2.05;1.25;;;4.30;99.90;;;;;;4972273;28;20153;-70
2024/02/23 04:41:23;;;;;;;4.15;1.75;;;4.20;99.90;;;;;;5004522;28;20050;-69
2024/02/23 04:43:50;;;;;;;5.28;1.50;;;4.20;99.90;;;;;;4973632;28;20043;-69
2024/02/23 04:46:17;;;;;;;2.03;1.27;;;4.20;99.90;;;;;;4973422;28;20043;-69
2024/02/23 04:48:44;;;;;;;2.83;1.10;;;4.10;99.90;;;;;;4973577;28;20046;-69
2024/02/23 04:51:11;;;;;;;2.78;1.58;;;4.10;99.90;;;;;;4988283;28;20509;-69
2024/02/23 04:53:39;;;;;;;5.10;2.15;;;4.10;99.90;;;;;;4972318;28;20091;-69
2024/02/23 04:56:06;;;;;;;6.97;2.22;;;4.20;99.90;;;;;;4973371;28;20055;-69
2024/02/23 04:58:33;;;;;;;4.60;1.60;;;4.10;99.90;;;;;;4972113;28;20050;-70
2024/02/23 05:01:00;;;;;;;3.58;2.08;;;4.20;99.90;;;;;;5004659;28;20062;-69
2024/02/23 05:03:27;;;;;;;4.07;1.23;;;4.30;99.90;;;;;;4972032;28;20043;-69
2024/02/23 05:05:54;;;;;;;4.88;2.88;;;4.20;99.90;;;;;;4988524;28;20043;-69
2024/02/23 05:08:21;;;;;;;3.55;2.45;;;4.10;99.90;;;;;;4973287;28;20163;-69
2024/02/23 05:10:48;;;;;;;7.68;3.22;;;4.20;99.90;;;;;;5004399;28;20619;-69
2024/02/23 05:13:15;;;;;;;5.47;4.05;;;4.10;99.90;;;;;;4971865;28;20050;-69
2024/02/23 05:15:42;;;;;;;5.80;4.15;;;4.20;99.90;;;;;;4972102;28;20054;-69
2024/02/23 05:18:09;;;;;;;3.85;3.45;;;4.30;99.90;;;;;;4973041;28;20050;-69
2024/02/23 05:20:37;;;;;;;7.55;5.97;;;4.30;99.90;;;;;;4988031;28;20396;-69
2024/02/23 05:23:04;;;;;;;7.75;5.43;;;4.40;99.90;;;;;;4987973;28;20053;-69
2024/02/23 05:25:31;;;;;;;7.43;5.50;;;4.40;99.90;;;;;;4971906;28;20050;-69
2024/02/23 05:27:58;;;;;;;8.30;3.80;;;4.60;99.90;;;;;;4973879;28;20109;-69
2024/02/23 05:30:27;;;;;;;6.30;5.60;;;4.50;99.90;;;;;;4991400;28;20055;-69
2024/02/23 05:32:54;;;;;;;11.77;6.95;;;4.60;99.90;;;;;;5007576;28;20113;-69
2024/02/23 05:35:21;;;;;;;8.18;7.38;;;4.50;99.90;;;;;;4976664;28;20500;-69
2024/02/23 05:37:49;;;;;;;8.57;6.93;;;4.50;99.90;;;;;;4976738;28;20093;-70
2024/02/23 05:40:17;;;;;;;10.50;6.38;;;4.60;99.90;;;;;;4975337;28;20120;-69
2024/02/23 05:42:44;;;;;;;8.20;5.28;;;4.60;99.90;;;;;;4975469;28;20141;-69
2024/02/23 05:45:11;;;;;;;7.45;5.45;;;4.60;99.90;;;;;;4991259;28;20047;-69
2024/02/23 05:47:38;;;;;;;10.70;5.32;;;4.60;99.90;;;;;;4976595;28;20050;-69
2024/02/23 05:50:11;;;;;;;8.10;5.80;;;4.60;99.90;;;;;;4976579;28;20062;-69
2024/02/23 05:52:39;;;;;;;9.00;8.15;;;4.60;99.90;;;;;;4975221;28;20408;-69
2024/02/23 05:55:07;;;;;;;12.48;5.35;;;4.70;99.90;;;;;;4976426;28;20046;-69
2024/02/23 05:57:34;;;;;;;10.70;6.95;;;4.70;99.90;;;;;;4976089;28;20039;-69
2024/02/23 06:00:01;;;;;;;7.85;6.32;;;4.70;99.90;;;;;;4976386;28;20512;-69
2024/02/23 06:02:38;;;;;;;8.55;6.05;;;4.60;99.90;;;;;;4974872;28;20496;-70
2024/02/23 06:05:07;;;;;;;5.22;4.18;;;4.60;99.90;;;;;;4975807;28;20043;-69
2024/02/23 06:07:34;;;;;;;7.32;6.10;;;4.60;99.90;;;;;;4975913;28;20404;-69
2024/02/23 06:10:02;;;;;;;9.05;4.68;;;4.60;99.90;;;;;;4976207;28;20061;-69
2024/02/23 06:12:29;;;;;;;6.05;5.45;;;4.60;99.90;;;;;;4975958;28;20448;-69
2024/02/23 06:14:56;;;;;;;6.53;5.47;;;4.70;99.90;;;;;;4974825;28;20047;-69
2024/02/23 06:17:24;;;;;;;8.73;5.95;;;4.60;99.90;;;;;;4975924;28;20542;-69
2024/02/23 06:19:53;;;;;;;11.80;6.43;;;4.60;99.90;;;;;;4974724;28;20492;-69
2024/02/23 06:22:23;;;;;;;10.70;6.38;;;4.50;99.90;;;;;;4990390;28;20058;-69
2024/02/23 06:24:50;;;;;;;8.50;5.43;;;4.50;99.90;;;;;;4974833;28;20077;-69
2024/02/23 06:27:17;;;;;;;7.63;4.32;;;4.40;99.90;;;;;;4975506;28;20110;-69
2024/02/23 06:29:44;;;;;;;10.55;6.05;;;4.40;99.90;;;;;;4974348;28;20078;-69
2024/02/23 06:32:11;;;;;;;9.70;5.80;;;4.30;99.90;;;;;;4975721;28;20556;-70
2024/02/23 06:34:38;;;;;;;7.55;6.38;;;4.30;99.90;;;;;;5006589;28;20396;-69
2024/02/23 06:37:05;;;;;;;8.60;5.38;;;4.30;99.90;;;;;;4974327;28;20113;-69
2024/02/23 06:39:32;;;;;;;12.02;8.15;;;4.30;99.90;;;;;;4989728;28;20393;-69
2024/02/23 06:42:01;;;;;;;6.57;4.43;;;4.30;99.90;;;;;;4974401;28;20038;-69
2024/02/23 06:44:28;;;;;;;6.10;3.58;;;4.30;99.90;;;;;;4975335;28;20049;-69
2024/02/23 06:46:55;;;;;;;4.50;3.67;;;4.30;99.90;;;;;;4974341;28;20039;-70
2024/02/23 06:49:22;;;;;;;9.07;4.75;;;4.50;99.90;;;;;;4975295;28;20051;-69
2024/02/23 06:51:49;;;;;;;9.32;6.00;;;4.40;99.90;;;;;;4974385;28;20377;-69
2024/02/23 06:54:16;;;;;;;11.77;6.93;;;4.60;99.90;;;;;;4974263;28;20105;-70
2024/02/23 06:56:43;;;;;;;11.90;5.38;;;4.60;99.90;;;;;;4975400;28;20042;-69
2024/02/23 06:59:10;;;;;;;8.40;5.18;;;4.70;99.90;;;;;;4975298;28;20046;-69
2024/02/23 07:01:48;;;;;;;14.55;5.38;;;4.70;99.90;;;;;;4989898;28;20129;-70
2024/02/23 07:04:15;;;;;;;11.25;7.30;;;4.70;99.90;;;;;;4973937;28;20046;-69
2024/02/23 07:06:42;;;;;;;8.15;5.57;;;4.70;99.90;;;;;;4974956;28;20511;-69
2024/02/23 07:09:11;;;;;;;7.35;5.85;;;4.70;99.90;;;;;;4975067;28;20073;-69
2024/02/23 07:11:41;;;;;;;10.80;6.45;;;4.70;99.90;;;;;;4989607;28;20117;-69
2024/02/23 07:14:09;;;;;;;16.27;7.85;;;4.80;99.90;;;;;;4973690;28;20470;-69
2024/02/23 07:16:42;;;;;;;18.88;7.80;;;5.00;99.90;;;;;;4974760;28;20047;-69
2024/02/23 07:19:09;;;;;;;7.05;4.00;;;4.90;99.90;;;;;;4974878;28;20047;-70
2024/02/23 07:21:36;;;;;;;8.82;6.38;;;5.10;99.90;;;;;;4973449;28;20468;-70
2024/02/23 07:24:06;;;;;;;8.70;4.43;;;5.00;99.90;;;;;;5005338;28;20046;-70
2024/02/23 07:26:33;;;;;;;8.18;4.93;;;5.00;99.90;;;;;;4973380;28;20105;-70
2024/02/23 07:29:00;;;;;;;10.73;6.70;;;5.10;99.90;;;;;;4975004;28;20397;-69
2024/02/23 07:31:27;;;;;;;8.77;4.78;;;5.10;99.90;;;;;;4974351;28;20062;-70
2024/02/23 07:33:54;;;;;;;6.18;4.38;;;5.20;99.90;;;;;;4989646;28;20046;-69
2024/02/23 07:36:21;;;;;;;4.97;3.55;;;5.20;99.90;;;;;;4973427;28;20078;-69
2024/02/23 07:38:48;;;;;;;4.80;2.67;;;5.30;99.90;;;;;;4973083;28;20043;-70
2024/02/23 07:41:17;;;;;;;9.98;4.97;;;5.30;99.90;;;;;;4973305;28;20070;-69
2024/02/23 07:43:44;;;;;;;10.55;4.82;;;5.40;99.90;;;;;;4972882;28;20503;-70
2024/02/23 07:46:12;;;;;;;5.63;3.40;;;5.40;99.90;;;;;;4974387;28;20105;-69
2024/02/23 07:48:39;;;;;;;7.80;5.00;;;5.60;99.90;;;;;;4974155;28;20039;-70
2024/02/23 07:51:07;;;;;;;5.88;2.92;;;5.60;99.90;;;;;;4973684;28;20047;-69
2024/02/23 07:53:34;;;;;;;5.03;3.60;;;5.60;99.90;;;;;;5005187;28;20567;-69
2024/02/23 07:56:02;;;;;;;4.35;2.53;;;5.60;99.90;;;;;;4974283;28;20508;-69
2024/02/23 07:58:29;;;;;;;10.88;3.78;;;5.60;99.90;;;;;;5005068;28;20066;-70
2024/02/23 08:00:56;;;;;;;6.63;3.13;;;5.60;99.90;;;;;;4988908;28;20050;-70
2024/02/23 08:03:24;;;;;;;5.10;3.40;;;5.60;99.90;;;;;;5005106;28;20030;-70
2024/02/23 08:05:50;;;;;;;7.03;3.33;;;5.60;99.90;;;;;;5017171;28;20046;-70
2024/02/23 08:08:18;;;;;;;6.13;3.42;;;5.60;99.90;;;;;;4992172;28;20514;-69
2024/02/23 08:10:45;;;;;;;3.75;2.92;;;5.60;99.90;;;;;;4993331;28;20073;-70
2024/02/23 08:13:12;;;;;;;2.42;2.17;;;5.70;99.90;;;;;;4992195;28;20089;-70
2024/02/23 08:15:39;;;;;;;8.65;3.95;;;5.70;99.90;;;;;;4993235;28;20129;-70
2024/02/23 08:18:06;;;;;;;5.13;3.45;;;5.70;99.90;;;;;;4992056;28;20108;-69
2024/02/23 08:20:33;;;;;;;3.15;2.55;;;5.70;99.90;;;;;;4993221;28;20046;-69
2024/02/23 08:23:00;;;;;;;5.40;2.70;;;5.70;99.90;;;;;;4975997;28;20038;-69
2024/02/23 08:25:29;;;;;;;5.68;3.58;;;5.80;99.90;;;;;;4992334;28;20034;-70
2024/02/23 08:27:56;;;;;;;5.50;3.60;;;5.80;99.90;;;;;;4992980;28;20554;-69
2024/02/23 08:30:23;;;;;;;8.55;2.78;;;5.80;99.90;;;;;;4991777;28;20054;-69
2024/02/23 08:32:50;;;;;;;1.90;1.27;;;5.80;99.90;;;;;;4975690;28;20152;-69
2024/02/23 08:35:18;;;;;;;4.70;2.97;;;5.90;99.90;;;;;;4993084;28;20049;-70
2024/02/23 08:37:45;;;;;;;3.45;2.13;;;5.90;99.90;;;;;;4992829;28;20038;-69
2024/02/23 08:40:12;;;;;;;3.70;1.73;;;5.90;99.90;;;;;;4991859;28;20100;-70
2024/02/23 08:42:39;;;;;;;7.22;2.97;;;6.00;99.90;;;;;;4991595;28;20066;-69
2024/02/23 08:45:07;;;;;;;2.85;1.27;;;6.00;99.90;;;;;;4993074;28;20039;-70
2024/02/23 08:47:35;;;;;;;4.13;1.90;;;6.10;99.90;;;;;;4975775;28;20039;-70
2024/02/23 08:50:03;;;;;;;5.28;2.08;;;6.20;99.90;;;;;;4991791;28;20125;-70
2024/02/23 08:52:31;;;;;;;4.00;2.13;;;6.30;99.90;;;;;;4991865;28;20118;-69
2024/02/23 08:54:58;;;;;;;3.33;1.83;;;6.30;99.90;;;;;;4992808;28;20562;-69
2024/02/23 08:57:25;;;;;;;4.20;1.75;;;6.40;99.90;;;;;;4991719;28;20078;-70
2024/02/23 08:59:53;;;;;;;5.78;3.42;;;6.40;99.90;;;;;;4992667;28;20459;-69
2024/02/23 09:02:20;;;;;;;2.88;2.00;;;6.50;99.90;;;;;;4995441;28;20050;-69
2024/02/23 09:04:47;;;;;;;2.50;1.85;;;6.60;99.90;;;;;;4995351;28;20053;-70
2024/02/23 09:07:14;;;;;;;3.33;2.35;;;6.70;99.90;;;;;;4996772;28;20084;-69
2024/02/23 09:09:41;;;;;;;7.47;3.03;;;6.80;99.90;;;;;;4979259;28;20377;-70
2024/02/23 09:12:10;;;;;;;4.60;3.10;;;6.80;99.90;;;;;;4995419;28;20415;-69
2024/02/23 09:14:38;;;;;;;4.65;1.75;;;6.80;99.90;;;;;;4996602;28;20065;-69
2024/02/23 09:17:08;;;;;;;2.10;1.90;;;6.80;99.90;;;;;;4996657;28;20469;-69
2024/02/23 09:19:36;;;;;;;5.35;1.90;;;7.00;99.90;;;;;;4996586;28;20047;-69
2024/02/23 09:22:03;;;;;;;5.03;2.58;;;7.10;99.90;;;;;;4995222;28;20066;-69
2024/02/23 09:24:30;;;;;;;3.65;1.85;;;7.20;99.90;;;;;;4996555;28;20484;-69
2024/02/23 09:26:57;;;;;;;3.95;1.63;;;7.30;99.90;;;;;;4995069;28;20046;-69
2024/02/23 09:29:24;;;;;;;1.80;1.00;;;7.30;99.90;;;;;;4995122;28;20049;-69
2024/02/23 09:31:52;;;;;;;2.08;1.63;;;7.40;99.90;;;;;;4994997;28;20073;-69
2024/02/23 09:34:19;;;;;;;6.25;1.75;;;7.50;99.90;;;;;;4995199;28;20038;-70
2024/02/23 09:36:46;;;;;;;6.35;1.70;;;7.50;99.90;;;;;;4994967;28;20038;-70
2024/02/23 09:39:15;;;;;;;3.42;1.95;;;7.90;99.90;;;;;;4994915;28;20043;-69
2024/02/23 09:41:42;;;;;;;4.25;1.95;;;8.70;99.90;;;;;;4994731;28;20054;-70
2024/02/23 09:44:10;;;;;;;4.28;1.27;;;8.90;99.90;;;;;;4994882;28;20074;-69
2024/02/23 09:46:38;;;;;;;3.88;1.35;;;9.00;99.90;;;;;;4994872;28;20050;-70
2024/02/23 09:49:07;;;;;;;1.42;1.05;;;8.90;99.90;;;;;;4994514;28;20503;-69
2024/02/23 09:51:36;;;;;;;4.30;1.60;;;8.70;99.90;;;;;;4994953;28;20046;-70
2024/02/23 09:54:03;;;;;;;4.18;1.50;;;8.50;99.90;;;;;;4994556;28;20058;-69
2024/02/23 09:56:30;;;;;;;3.90;1.30;;;8.30;99.90;;;;;;4994731;28;20042;-70
2024/02/23 09:59:01;;;;;;;3.58;1.80;;;8.20;99.90;;;;;;4995582;28;20042;-69
2024/02/23 10:01:30;;;;;;;;;;;8.00;99.90;;;;;;4995037;28;20046;-69
2024/02/23 10:03:58;;;;;;;5.97;2.40;;;7.80;99.90;;;;;;4995691;28;19944;-70
2024/02/23 10:06:26;;;;;;;5.38;2.28;;;7.70;99.90;;;;;;4994630;28;20113;-69
2024/02/23 10:08:55;;;;;;;3.80;1.65;;;7.60;99.90;;;;;;4995540;28;20100;-69
2024/02/23 10:11:24;;;;;;;3.72;1.85;;;7.60;99.90;;;;;;4994367;28;20136;-69
2024/02/23 10:13:54;;;;;;;3.92;1.83;;;7.60;99.90;;;;;;4994632;28;20070;-69
2024/02/23 10:16:22;;;;;;;5.28;1.45;;;7.60;99.90;;;;;;4995656;28;20042;-69
2024/02/23 10:18:49;;;;;;;5.05;1.25;;;7.60;99.90;;;;;;4995152;28;20484;-70
2024/02/23 10:21:17;;;;;;;6.15;2.10;;;7.70;99.90;;;;;;4994221;28;20088;-69
2024/02/23 10:23:45;;;;;;;4.68;1.65;;;7.70;99.90;;;;;;4992343;28;20060;-69
2024/02/23 10:26:13;;;;;;;4.10;2.08;;;7.70;99.90;;;;;;4993404;28;20054;-69
2024/02/23 10:28:40;;;;;;;6.20;1.63;;;7.70;99.90;;;;;;4977487;28;20046;-69
2024/02/23 10:31:07;;;;;;;2.70;1.15;;;7.70;99.90;;;;;;4993621;28;20086;-69
2024/02/23 10:33:37;;;;;;;5.38;1.52;;;7.70;99.90;;;;;;4993896;28;20492;-69
2024/02/23 10:36:06;;;;;;;5.28;2.03;;;7.70;99.90;;;;;;4994951;28;20046;-69
2024/02/23 10:38:37;;;;;;;5.72;2.40;;;7.70;99.90;;;;;;4995061;28;20491;-69
2024/02/23 10:41:06;;;;;;;4.82;1.70;;;7.70;99.90;;;;;;4993685;28;20492;-69
2024/02/23 10:43:43;;;;;;;2.17;1.05;;;7.70;99.90;;;;;;4993826;28;20464;-69
2024/02/23 10:46:15;;;;;;;7.32;1.88;;;7.70;99.90;;;;;;4993632;28;20068;-69
2024/02/23 10:48:44;;;;;;;2.53;1.13;;;7.70;99.90;;;;;;4995100;28;20038;-69
2024/02/23 10:51:14;;;;;;;2.83;1.55;;;7.70;99.90;;;;;;4994771;28;20050;-69
2024/02/23 10:53:46;;;;;;;4.30;1.92;;;7.70;99.90;;;;;;4994950;28;20050;-69
2024/02/23 10:56:13;;;;;;;3.70;1.70;;;7.70;99.90;;;;;;4993500;28;20038;-69
2024/02/23 10:58:40;;;;;;;4.88;1.92;;;7.80;99.90;;;;;;4993317;28;20050;-69
2024/02/23 11:01:08;;;;;;;3.30;1.70;;;7.70;99.90;;;;;;4993385;28;20045;-69
2024/02/23 11:03:37;;;;;;;3.05;1.23;;;7.90;99.90;;;;;;4994653;28;20044;-69
2024/02/23 11:06:07;;;;;;;2.30;1.30;;;7.70;99.90;;;;;;4993164;28;20087;-69
2024/02/23 11:08:38;;;;;;;3.35;1.33;;;7.70;99.90;;;;;;4994627;28;20038;-69
2024/02/23 11:11:10;;;;;;;2.40;1.40;;;7.60;99.90;;;;;;4993105;28;20046;-69
2024/02/23 11:13:38;;;;;;;3.63;2.17;;;7.70;99.90;;;;;;4994535;28;20476;-69
2024/02/23 11:16:07;;;;;;;6.22;1.83;;;7.70;99.90;;;;;;4994219;28;20049;-69
2024/02/23 11:18:40;;;;;;;3.58;1.08;;;7.70;99.90;;;;;;4993083;28;20116;-69
2024/02/23 11:21:10;;;;;;;3.13;1.63;;;7.80;99.90;;;;;;4993044;28;20422;-69
2024/02/23 11:23:48;;;;;;;5.65;1.55;;;7.70;99.90;;;;;;4994385;28;20109;-69
2024/02/23 11:26:15;;;;;;;4.85;1.00;;;7.70;99.90;;;;;;4992958;28;20125;-69
2024/02/23 11:28:49;;;;;;;3.08;1.38;;;7.70;99.90;;;;;;4992949;28;20054;-69
2024/02/23 11:31:26;;;;;;;5.07;1.45;;;7.60;99.90;;;;;;4993890;28;20100;-69
2024/02/23 11:33:54;;;;;;;3.00;1.63;;;7.50;99.90;;;;;;4994173;28;20051;-69
2024/02/23 11:36:28;;;;;;;4.88;1.35;;;7.50;99.90;;;;;;4994224;28;20563;-69
2024/02/23 11:39:00;;;;;;;3.67;1.27;;;7.60;99.90;;;;;;4993748;28;20038;-69
2024/02/23 11:41:29;;;;;;;3.22;1.50;;;7.70;99.90;;;;;;4994009;28;20129;-69
2024/02/23 11:43:58;;;;;;;2.72;1.65;;;7.90;99.90;;;;;;4993967;28;20049;-69
2024/02/23 11:46:25;;;;;;;2.35;1.10;;;8.10;99.90;;;;;;4992592;28;20053;-69
2024/02/23 11:48:55;;;;;;;3.92;1.55;;;8.20;99.90;;;;;;4992607;28;20066;-69
2024/02/23 11:51:24;;;;;;;1.83;1.63;;;8.20;99.90;;;;;;4992396;28;20073;-69
2024/02/23 11:53:51;;;;;;;2.28;1.48;;;8.20;99.90;;;;;;4993759;28;20050;-69
2024/02/23 11:56:19;;;;;;;4.22;1.45;;;8.10;99.90;;;;;;4992376;28;20053;-69
2024/02/23 11:58:47;;;;;;;3.92;1.90;;;8.10;99.90;;;;;;4993642;28;20042;-69
2024/02/23 12:01:14;;;;;;;5.97;1.67;;;7.80;99.90;;;;;;4993514;28;20042;-70
2024/02/23 12:03:43;;;;;;;2.67;1.58;;;7.60;99.90;;;;;;4993686;28;20129;-69
2024/02/23 12:06:11;;;;;;;2.25;1.30;;;7.70;99.90;;;;;;4993380;28;20482;-69
2024/02/23 12:08:38;;;;;;;5.03;2.85;;;7.50;99.90;;;;;;4992394;28;20396;-69
2024/02/23 12:11:08;;;;;;;2.50;1.48;;;7.30;99.90;;;;;;4992174;28;20070;-69
2024/02/23 12:13:36;;;;;;;4.68;2.42;;;7.30;99.90;;;;;;4992262;28;20377;-69
2024/02/23 12:16:03;;;;;;;4.07;1.88;;;7.20;99.90;;;;;;4993241;28;20403;-69
2024/02/23 12:18:33;;;;;;;1.42;1.02;;;7.10;99.90;;;;;;4993210;28;20043;-69
2024/02/23 12:21:02;;;;;;;2.50;1.35;;;7.20;99.90;;;;;;4993346;28;20082;-69
2024/02/23 12:23:43;;;;;;;5.03;1.65;;;7.20;99.90;;;;;;4993274;28;20057;-69
2024/02/23 12:26:13;;;;;;;2.90;1.55;;;7.20;99.90;;;;;;4991914;28;20047;-69
2024/02/23 12:28:41;;;;;;;2.33;1.55;;;7.20;99.90;;;;;;4991981;28;20038;-69
2024/02/23 12:31:08;;;;;;;3.90;2.35;;;7.20;99.90;;;;;;4975710;28;20454;-69
2024/02/23 12:33:40;;;;;;;3.03;1.48;;;7.40;99.90;;;;;;4993088;28;20116;-69
2024/02/23 12:36:08;;;;;;;2.20;1.00;;;7.20;99.90;;;;;;4991274;28;20043;-69
2024/02/23 12:38:36;;;;;;;2.35;1.63;;;7.20;99.90;;;;;;4975657;28;20089;-69
2024/02/23 12:41:04;;;;;;;3.03;0.82;;;7.30;99.90;;;;;;4991797;28;20051;-69
2024/02/23 12:43:31;;;;;;;7.50;1.73;;;7.30;99.90;;;;;;4993010;28;20035;-69
2024/02/23 12:45:58;;;;;;;4.70;1.85;;;7.30;99.90;;;;;;4992934;28;20101;-69
2024/02/23 12:48:25;;;;;;;1.73;1.02;;;7.20;99.90;;;;;;4992715;28;20042;-69
2024/02/23 12:50:53;;;;;;;6.00;2.17;;;7.20;99.90;;;;;;4991861;28;20049;-69
2024/02/23 12:53:36;;;;;;;0.98;0.85;;;7.10;99.90;;;;;;4975609;28;20132;-69
2024/02/23 12:56:05;;;;;;;3.17;1.25;;;7.10;99.90;;;;;;4992750;28;20054;-69
2024/02/23 12:58:32;;;;;;;3.85;1.58;;;7.00;99.90;;;;;;4991510;28;20116;-69
2024/02/23 13:00:59;;;;;;;2.17;2.00;;;7.00;99.90;;;;;;4991552;28;20042;-69